sensor_id;sensor_type;location;lat;lon;timestamp;P1;durP1;ratioP1;P2;durP2;ratioP2
49858;SDS011;35756;52.346;13.622;2022-12-07T00:02:14;17.85;;;7.30;;
49858;SDS011;35756;52.346;13.622;2022-12-07T00:04:39;21.17;;;7.72;;
49858;SDS011;35756;52.346;13.622;2022-12-07T00:07:04;19.02;;;7.72;;
49858;SDS011;35756;52.346;13.622;2022-12-07T00:09:30;15.18;;;7.25;;
49858;SDS011;35756;52.346;13.622;2022-12-07T00:11:55;15.85;;;7.28;;
49858;SDS011;35756;52.346;13.622;2022-12-07T00:14:21;20.13;;;7.43;;
49858;SDS011;35756;52.346;13.622;2022-12-07T00:16:48;17.10;;;7.82;;
49858;SDS011;35756;52.346;13.622;2022-12-07T00:19:14;17.63;;;7.60;;
49858;SDS011;35756;52.346;13.622;2022-12-07T00:21:39;19.10;;;8.05;;
49858;SDS011;35756;52.346;13.622;2022-12-07T00:24:05;18.20;;;7.47;;
49858;SDS011;35756;52.346;13.622;2022-12-07T00:26:32;19.05;;;8.00;;
49858;SDS011;35756;52.346;13.622;2022-12-07T00:28:59;18.65;;;7.38;;
49858;SDS011;35756;52.346;13.622;2022-12-07T00:31:31;134.27;;;99.90;;
49858;SDS011;35756;52.346;13.622;2022-12-07T00:33:58;19.52;;;8.25;;
49858;SDS011;35756;52.346;13.622;2022-12-07T00:36:24;16.63;;;7.25;;
49858;SDS011;35756;52.346;13.622;2022-12-07T00:38:49;16.58;;;8.15;;
49858;SDS011;35756;52.346;13.622;2022-12-07T00:41:15;15.65;;;7.70;;
49858;SDS011;35756;52.346;13.622;2022-12-07T00:43:42;15.07;;;7.32;;
49858;SDS011;35756;52.346;13.622;2022-12-07T00:46:08;17.05;;;7.30;;
49858;SDS011;35756;52.346;13.622;2022-12-07T00:48:34;15.20;;;7.43;;
49858;SDS011;35756;52.346;13.622;2022-12-07T00:50:59;15.80;;;7.20;;
49858;SDS011;35756;52.346;13.622;2022-12-07T00:53:26;14.65;;;7.05;;
49858;SDS011;35756;52.346;13.622;2022-12-07T00:55:51;15.27;;;8.43;;
49858;SDS011;35756;52.346;13.622;2022-12-07T00:58:17;13.55;;;7.80;;
49858;SDS011;35756;52.346;13.622;2022-12-07T01:00:43;13.93;;;7.47;;
49858;SDS011;35756;52.346;13.622;2022-12-07T01:03:09;14.00;;;7.40;;
49858;SDS011;35756;52.346;13.622;2022-12-07T01:05:36;15.63;;;7.88;;
49858;SDS011;35756;52.346;13.622;2022-12-07T01:08:01;15.10;;;7.55;;
49858;SDS011;35756;52.346;13.622;2022-12-07T01:10:27;12.60;;;7.40;;
49858;SDS011;35756;52.346;13.622;2022-12-07T01:12:52;12.65;;;7.13;;
49858;SDS011;35756;52.346;13.622;2022-12-07T01:15:18;16.25;;;8.65;;
49858;SDS011;35756;52.346;13.622;2022-12-07T01:17:44;12.50;;;7.50;;
49858;SDS011;35756;52.346;13.622;2022-12-07T01:20:09;11.55;;;6.57;;
49858;SDS011;35756;52.346;13.622;2022-12-07T01:22:39;14.02;;;6.63;;
49858;SDS011;35756;52.346;13.622;2022-12-07T01:25:06;11.20;;;6.22;;
49858;SDS011;35756;52.346;13.622;2022-12-07T01:27:32;11.20;;;7.43;;
49858;SDS011;35756;52.346;13.622;2022-12-07T01:29:58;13.23;;;7.28;;
49858;SDS011;35756;52.346;13.622;2022-12-07T01:32:23;12.85;;;6.10;;
49858;SDS011;35756;52.346;13.622;2022-12-07T01:34:48;11.93;;;6.63;;
49858;SDS011;35756;52.346;13.622;2022-12-07T01:37:14;11.85;;;6.03;;
49858;SDS011;35756;52.346;13.622;2022-12-07T01:39:39;13.45;;;6.90;;
49858;SDS011;35756;52.346;13.622;2022-12-07T01:42:08;15.20;;;7.30;;
49858;SDS011;35756;52.346;13.622;2022-12-07T01:45:14;13.25;;;6.25;;
49858;SDS011;35756;52.346;13.622;2022-12-07T01:47:38;13.43;;;6.13;;
49858;SDS011;35756;52.346;13.622;2022-12-07T01:50:03;13.25;;;7.43;;
49858;SDS011;35756;52.346;13.622;2022-12-07T01:52:30;12.35;;;6.63;;
49858;SDS011;35756;52.346;13.622;2022-12-07T01:55:01;13.95;;;7.15;;
49858;SDS011;35756;52.346;13.622;2022-12-07T01:57:29;13.93;;;6.72;;
49858;SDS011;35756;52.346;13.622;2022-12-07T01:59:55;14.00;;;6.68;;
49858;SDS011;35756;52.346;13.622;2022-12-07T02:02:23;16.77;;;8.75;;
49858;SDS011;35756;52.346;13.622;2022-12-07T02:04:51;11.85;;;8.02;;
49858;SDS011;35756;52.346;13.622;2022-12-07T02:07:17;12.15;;;6.13;;
49858;SDS011;35756;52.346;13.622;2022-12-07T02:09:43;12.15;;;6.78;;
49858;SDS011;35756;52.346;13.622;2022-12-07T02:12:08;15.30;;;7.22;;
49858;SDS011;35756;52.346;13.622;2022-12-07T02:14:34;10.43;;;5.93;;
49858;SDS011;35756;52.346;13.622;2022-12-07T02:17:03;13.68;;;6.90;;
49858;SDS011;35756;52.346;13.622;2022-12-07T02:19:38;14.27;;;6.70;;
49858;SDS011;35756;52.346;13.622;2022-12-07T02:22:33;14.00;;;7.05;;
49858;SDS011;35756;52.346;13.622;2022-12-07T02:30:56;11.02;;;7.35;;
49858;SDS011;35756;52.346;13.622;2022-12-07T02:36:39;12.95;;;6.38;;
49858;SDS011;35756;52.346;13.622;2022-12-07T02:39:12;10.40;;;6.13;;
49858;SDS011;35756;52.346;13.622;2022-12-07T02:41:46;10.30;;;5.93;;
49858;SDS011;35756;52.346;13.622;2022-12-07T02:44:17;11.75;;;7.20;;
49858;SDS011;35756;52.346;13.622;2022-12-07T02:46:44;10.32;;;5.45;;
49858;SDS011;35756;52.346;13.622;2022-12-07T02:49:13;11.30;;;7.55;;
49858;SDS011;35756;52.346;13.622;2022-12-07T02:51:40;9.93;;;6.35;;
49858;SDS011;35756;52.346;13.622;2022-12-07T02:54:14;11.73;;;6.63;;
49858;SDS011;35756;52.346;13.622;2022-12-07T03:02:06;8.75;;;6.30;;
49858;SDS011;35756;52.346;13.622;2022-12-07T03:04:44;10.73;;;7.18;;
49858;SDS011;35756;52.346;13.622;2022-12-07T03:10:09;9.73;;;7.25;;
49858;SDS011;35756;52.346;13.622;2022-12-07T03:12:43;8.93;;;6.22;;
49858;SDS011;35756;52.346;13.622;2022-12-07T03:15:33;11.52;;;7.63;;
49858;SDS011;35756;52.346;13.622;2022-12-07T03:17:57;12.23;;;9.32;;
49858;SDS011;35756;52.346;13.622;2022-12-07T03:20:25;8.65;;;5.93;;
49858;SDS011;35756;52.346;13.622;2022-12-07T03:22:52;12.80;;;6.47;;
49858;SDS011;35756;52.346;13.622;2022-12-07T03:25:17;10.55;;;6.05;;
49858;SDS011;35756;52.346;13.622;2022-12-07T03:27:49;9.55;;;6.25;;
49858;SDS011;35756;52.346;13.622;2022-12-07T03:32:44;14.13;;;7.40;;
49858;SDS011;35756;52.346;13.622;2022-12-07T03:35:22;11.35;;;5.82;;
49858;SDS011;35756;52.346;13.622;2022-12-07T03:37:54;13.45;;;7.50;;
49858;SDS011;35756;52.346;13.622;2022-12-07T03:40:35;10.85;;;6.10;;
49858;SDS011;35756;52.346;13.622;2022-12-07T03:43:04;10.93;;;7.53;;
49858;SDS011;35756;52.346;13.622;2022-12-07T03:45:37;10.60;;;6.13;;
49858;SDS011;35756;52.346;13.622;2022-12-07T03:50:44;8.25;;;5.40;;
49858;SDS011;35756;52.346;13.622;2022-12-07T03:53:15;12.18;;;6.40;;
49858;SDS011;35756;52.346;13.622;2022-12-07T03:55:44;12.20;;;6.53;;
49858;SDS011;35756;52.346;13.622;2022-12-07T03:58:12;12.45;;;6.65;;
49858;SDS011;35756;52.346;13.622;2022-12-07T04:00:40;12.88;;;6.07;;
49858;SDS011;35756;52.346;13.622;2022-12-07T04:03:06;8.90;;;5.35;;
49858;SDS011;35756;52.346;13.622;2022-12-07T04:05:32;11.43;;;5.80;;
49858;SDS011;35756;52.346;13.622;2022-12-07T04:07:57;10.68;;;6.00;;
49858;SDS011;35756;52.346;13.622;2022-12-07T04:10:22;12.77;;;6.05;;
49858;SDS011;35756;52.346;13.622;2022-12-07T04:12:48;13.55;;;6.10;;
49858;SDS011;35756;52.346;13.622;2022-12-07T04:15:13;15.75;;;7.13;;
49858;SDS011;35756;52.346;13.622;2022-12-07T04:17:38;12.32;;;6.28;;
49858;SDS011;35756;52.346;13.622;2022-12-07T04:20:04;11.48;;;6.28;;
49858;SDS011;35756;52.346;13.622;2022-12-07T04:22:30;14.98;;;6.53;;
49858;SDS011;35756;52.346;13.622;2022-12-07T04:24:55;15.23;;;6.97;;
49858;SDS011;35756;52.346;13.622;2022-12-07T04:27:20;14.43;;;6.82;;
49858;SDS011;35756;52.346;13.622;2022-12-07T04:29:46;15.50;;;6.75;;
49858;SDS011;35756;52.346;13.622;2022-12-07T04:32:11;16.48;;;7.18;;
49858;SDS011;35756;52.346;13.622;2022-12-07T04:34:36;16.77;;;7.45;;
49858;SDS011;35756;52.346;13.622;2022-12-07T04:37:01;17.80;;;7.97;;
49858;SDS011;35756;52.346;13.622;2022-12-07T04:39:30;16.25;;;8.02;;
49858;SDS011;35756;52.346;13.622;2022-12-07T04:41:57;19.27;;;8.10;;
49858;SDS011;35756;52.346;13.622;2022-12-07T04:44:23;17.65;;;7.97;;
49858;SDS011;35756;52.346;13.622;2022-12-07T04:46:49;19.92;;;8.48;;
49858;SDS011;35756;52.346;13.622;2022-12-07T04:49:14;19.75;;;8.45;;
49858;SDS011;35756;52.346;13.622;2022-12-07T04:51:40;18.05;;;7.82;;
49858;SDS011;35756;52.346;13.622;2022-12-07T04:54:06;17.52;;;8.07;;
49858;SDS011;35756;52.346;13.622;2022-12-07T04:56:31;20.52;;;8.88;;
49858;SDS011;35756;52.346;13.622;2022-12-07T04:58:57;20.63;;;8.88;;
49858;SDS011;35756;52.346;13.622;2022-12-07T05:01:22;24.55;;;9.60;;
49858;SDS011;35756;52.346;13.622;2022-12-07T05:03:48;21.88;;;10.18;;
49858;SDS011;35756;52.346;13.622;2022-12-07T05:06:14;21.55;;;9.45;;
49858;SDS011;35756;52.346;13.622;2022-12-07T05:08:39;21.73;;;9.57;;
49858;SDS011;35756;52.346;13.622;2022-12-07T05:11:05;24.70;;;11.20;;
49858;SDS011;35756;52.346;13.622;2022-12-07T05:13:31;23.98;;;10.38;;
49858;SDS011;35756;52.346;13.622;2022-12-07T05:15:57;27.95;;;12.07;;
49858;SDS011;35756;52.346;13.622;2022-12-07T05:18:22;27.00;;;11.57;;
49858;SDS011;35756;52.346;13.622;2022-12-07T05:20:48;31.70;;;12.23;;
49858;SDS011;35756;52.346;13.622;2022-12-07T05:23:13;33.50;;;13.85;;
49858;SDS011;35756;52.346;13.622;2022-12-07T05:25:38;30.48;;;13.43;;
49858;SDS011;35756;52.346;13.622;2022-12-07T05:28:04;34.47;;;13.65;;
49858;SDS011;35756;52.346;13.622;2022-12-07T05:30:29;30.65;;;12.20;;
49858;SDS011;35756;52.346;13.622;2022-12-07T05:32:55;34.28;;;12.45;;
49858;SDS011;35756;52.346;13.622;2022-12-07T05:35:20;37.30;;;13.65;;
49858;SDS011;35756;52.346;13.622;2022-12-07T05:37:46;32.10;;;13.60;;
49858;SDS011;35756;52.346;13.622;2022-12-07T05:40:12;33.30;;;12.50;;
49858;SDS011;35756;52.346;13.622;2022-12-07T05:42:37;34.42;;;13.38;;
49858;SDS011;35756;52.346;13.622;2022-12-07T05:45:03;30.95;;;11.60;;
49858;SDS011;35756;52.346;13.622;2022-12-07T05:47:29;30.20;;;12.82;;
49858;SDS011;35756;52.346;13.622;2022-12-07T05:49:54;28.48;;;12.07;;
49858;SDS011;35756;52.346;13.622;2022-12-07T05:52:20;32.65;;;13.40;;
49858;SDS011;35756;52.346;13.622;2022-12-07T05:54:45;31.65;;;12.55;;
49858;SDS011;35756;52.346;13.622;2022-12-07T05:57:11;30.45;;;14.10;;
49858;SDS011;35756;52.346;13.622;2022-12-07T05:59:36;30.17;;;13.05;;
49858;SDS011;35756;52.346;13.622;2022-12-07T06:02:03;32.42;;;13.13;;
49858;SDS011;35756;52.346;13.622;2022-12-07T06:04:31;33.00;;;13.45;;
49858;SDS011;35756;52.346;13.622;2022-12-07T06:06:57;33.38;;;14.73;;
49858;SDS011;35756;52.346;13.622;2022-12-07T06:09:23;29.83;;;12.23;;
49858;SDS011;35756;52.346;13.622;2022-12-07T06:11:50;33.38;;;14.93;;
49858;SDS011;35756;52.346;13.622;2022-12-07T06:14:34;27.55;;;12.55;;
49858;SDS011;35756;52.346;13.622;2022-12-07T06:16:59;34.53;;;13.85;;
49858;SDS011;35756;52.346;13.622;2022-12-07T06:19:24;34.90;;;13.52;;
49858;SDS011;35756;52.346;13.622;2022-12-07T06:21:50;32.35;;;13.75;;
49858;SDS011;35756;52.346;13.622;2022-12-07T06:24:16;36.78;;;14.48;;
49858;SDS011;35756;52.346;13.622;2022-12-07T06:26:42;32.58;;;13.45;;
49858;SDS011;35756;52.346;13.622;2022-12-07T06:29:07;32.78;;;14.30;;
49858;SDS011;35756;52.346;13.622;2022-12-07T06:31:33;33.97;;;14.55;;
49858;SDS011;35756;52.346;13.622;2022-12-07T06:33:59;32.75;;;13.10;;
49858;SDS011;35756;52.346;13.622;2022-12-07T06:36:25;34.70;;;14.65;;
49858;SDS011;35756;52.346;13.622;2022-12-07T06:38:50;36.38;;;14.32;;
49858;SDS011;35756;52.346;13.622;2022-12-07T06:41:15;33.58;;;12.23;;
49858;SDS011;35756;52.346;13.622;2022-12-07T06:43:41;32.42;;;12.63;;
49858;SDS011;35756;52.346;13.622;2022-12-07T06:46:07;29.10;;;11.93;;
49858;SDS011;35756;52.346;13.622;2022-12-07T06:48:32;34.65;;;13.75;;
49858;SDS011;35756;52.346;13.622;2022-12-07T06:50:57;30.48;;;13.60;;
49858;SDS011;35756;52.346;13.622;2022-12-07T06:53:22;31.90;;;12.98;;
49858;SDS011;35756;52.346;13.622;2022-12-07T06:55:48;30.17;;;13.02;;
49858;SDS011;35756;52.346;13.622;2022-12-07T06:58:13;31.70;;;13.68;;
49858;SDS011;35756;52.346;13.622;2022-12-07T07:00:39;31.77;;;12.35;;
49858;SDS011;35756;52.346;13.622;2022-12-07T07:03:04;30.10;;;12.05;;
49858;SDS011;35756;52.346;13.622;2022-12-07T07:05:29;31.05;;;13.52;;
49858;SDS011;35756;52.346;13.622;2022-12-07T07:07:54;41.45;;;22.67;;
49858;SDS011;35756;52.346;13.622;2022-12-07T07:10:20;33.83;;;13.55;;
49858;SDS011;35756;52.346;13.622;2022-12-07T07:12:45;34.60;;;13.52;;
49858;SDS011;35756;52.346;13.622;2022-12-07T07:15:10;33.17;;;13.73;;
49858;SDS011;35756;52.346;13.622;2022-12-07T07:17:36;33.50;;;13.15;;
49858;SDS011;35756;52.346;13.622;2022-12-07T07:20:02;36.08;;;13.60;;
49858;SDS011;35756;52.346;13.622;2022-12-07T07:22:27;36.05;;;14.57;;
49858;SDS011;35756;52.346;13.622;2022-12-07T07:24:53;28.83;;;12.90;;
49858;SDS011;35756;52.346;13.622;2022-12-07T07:27:18;35.33;;;14.40;;
49858;SDS011;35756;52.346;13.622;2022-12-07T07:29:43;35.78;;;14.52;;
49858;SDS011;35756;52.346;13.622;2022-12-07T07:32:09;33.38;;;13.90;;
49858;SDS011;35756;52.346;13.622;2022-12-07T07:34:34;42.15;;;14.88;;
49858;SDS011;35756;52.346;13.622;2022-12-07T07:36:59;35.55;;;13.70;;
49858;SDS011;35756;52.346;13.622;2022-12-07T07:39:25;32.38;;;14.15;;
49858;SDS011;35756;52.346;13.622;2022-12-07T07:41:50;35.08;;;14.45;;
49858;SDS011;35756;52.346;13.622;2022-12-07T07:44:15;29.95;;;13.93;;
49858;SDS011;35756;52.346;13.622;2022-12-07T07:46:40;31.35;;;13.40;;
49858;SDS011;35756;52.346;13.622;2022-12-07T07:49:06;35.65;;;14.45;;
49858;SDS011;35756;52.346;13.622;2022-12-07T07:51:31;31.42;;;13.90;;
49858;SDS011;35756;52.346;13.622;2022-12-07T07:53:56;34.22;;;13.48;;
49858;SDS011;35756;52.346;13.622;2022-12-07T07:56:22;30.55;;;13.90;;
49858;SDS011;35756;52.346;13.622;2022-12-07T07:58:47;33.47;;;14.05;;
49858;SDS011;35756;52.346;13.622;2022-12-07T08:01:12;35.03;;;13.88;;
49858;SDS011;35756;52.346;13.622;2022-12-07T08:03:38;32.22;;;14.32;;
49858;SDS011;35756;52.346;13.622;2022-12-07T08:06:03;29.55;;;13.57;;
49858;SDS011;35756;52.346;13.622;2022-12-07T08:08:29;32.20;;;13.70;;
49858;SDS011;35756;52.346;13.622;2022-12-07T08:10:54;30.20;;;12.52;;
49858;SDS011;35756;52.346;13.622;2022-12-07T08:13:19;28.23;;;12.25;;
49858;SDS011;35756;52.346;13.622;2022-12-07T08:15:46;29.38;;;12.70;;
49858;SDS011;35756;52.346;13.622;2022-12-07T08:18:12;32.15;;;12.88;;
49858;SDS011;35756;52.346;13.622;2022-12-07T08:20:39;26.95;;;12.80;;
49858;SDS011;35756;52.346;13.622;2022-12-07T08:23:05;28.83;;;12.88;;
49858;SDS011;35756;52.346;13.622;2022-12-07T08:25:31;27.23;;;12.77;;
49858;SDS011;35756;52.346;13.622;2022-12-07T08:27:56;28.10;;;13.57;;
49858;SDS011;35756;52.346;13.622;2022-12-07T08:30:22;24.02;;;11.85;;
49858;SDS011;35756;52.346;13.622;2022-12-07T08:32:47;27.98;;;12.32;;
49858;SDS011;35756;52.346;13.622;2022-12-07T08:35:13;28.90;;;13.38;;
49858;SDS011;35756;52.346;13.622;2022-12-07T08:37:39;28.20;;;12.00;;
49858;SDS011;35756;52.346;13.622;2022-12-07T08:40:05;25.27;;;11.88;;
49858;SDS011;35756;52.346;13.622;2022-12-07T08:42:31;29.23;;;11.82;;
49858;SDS011;35756;52.346;13.622;2022-12-07T08:45:03;26.30;;;12.15;;
49858;SDS011;35756;52.346;13.622;2022-12-07T08:47:32;25.85;;;11.88;;
49858;SDS011;35756;52.346;13.622;2022-12-07T08:50:01;28.30;;;11.43;;
49858;SDS011;35756;52.346;13.622;2022-12-07T08:52:29;26.77;;;10.00;;
49858;SDS011;35756;52.346;13.622;2022-12-07T08:54:54;19.98;;;9.65;;
49858;SDS011;35756;52.346;13.622;2022-12-07T08:57:20;20.10;;;10.70;;
49858;SDS011;35756;52.346;13.622;2022-12-07T08:59:46;18.75;;;9.35;;
49858;SDS011;35756;52.346;13.622;2022-12-07T09:02:12;22.17;;;9.45;;
49858;SDS011;35756;52.346;13.622;2022-12-07T09:04:37;17.27;;;10.07;;
49858;SDS011;35756;52.346;13.622;2022-12-07T09:07:02;17.80;;;8.40;;
49858;SDS011;35756;52.346;13.622;2022-12-07T09:09:28;18.92;;;7.70;;
49858;SDS011;35756;52.346;13.622;2022-12-07T09:11:54;16.25;;;8.13;;
49858;SDS011;35756;52.346;13.622;2022-12-07T09:14:19;18.02;;;8.65;;
49858;SDS011;35756;52.346;13.622;2022-12-07T09:16:44;17.15;;;8.15;;
49858;SDS011;35756;52.346;13.622;2022-12-07T09:19:10;18.33;;;12.70;;
49858;SDS011;35756;52.346;13.622;2022-12-07T09:21:35;12.18;;;6.20;;
49858;SDS011;35756;52.346;13.622;2022-12-07T09:24:00;11.85;;;6.63;;
49858;SDS011;35756;52.346;13.622;2022-12-07T09:26:25;8.10;;;4.88;;
49858;SDS011;35756;52.346;13.622;2022-12-07T09:28:51;20.50;;;10.68;;
49858;SDS011;35756;52.346;13.622;2022-12-07T09:31:16;6.88;;;5.20;;
49858;SDS011;35756;52.346;13.622;2022-12-07T09:33:41;8.63;;;4.85;;
49858;SDS011;35756;52.346;13.622;2022-12-07T09:36:07;7.53;;;6.15;;
49858;SDS011;35756;52.346;13.622;2022-12-07T09:38:34;13.35;;;12.25;;
49858;SDS011;35756;52.346;13.622;2022-12-07T09:41:03;11.45;;;10.25;;
49858;SDS011;35756;52.346;13.622;2022-12-07T09:43:29;12.05;;;9.70;;
49858;SDS011;35756;52.346;13.622;2022-12-07T09:45:55;158.82;;;145.95;;
49858;SDS011;35756;52.346;13.622;2022-12-07T09:48:29;16.95;;;15.73;;
49858;SDS011;35756;52.346;13.622;2022-12-07T09:50:57;80.80;;;76.88;;
49858;SDS011;35756;52.346;13.622;2022-12-07T09:56:03;347.35;;;332.50;;
49858;SDS011;35756;52.346;13.622;2022-12-07T09:58:29;206.38;;;198.05;;
49858;SDS011;35756;52.346;13.622;2022-12-07T10:00:57;312.40;;;292.90;;
49858;SDS011;35756;52.346;13.622;2022-12-07T10:03:26;232.73;;;221.80;;
49858;SDS011;35756;52.346;13.622;2022-12-07T10:05:52;206.07;;;197.13;;
49858;SDS011;35756;52.346;13.622;2022-12-07T10:08:18;140.63;;;134.70;;
49858;SDS011;35756;52.346;13.622;2022-12-07T10:10:43;181.18;;;173.75;;
49858;SDS011;35756;52.346;13.622;2022-12-07T10:13:10;219.23;;;210.05;;
49858;SDS011;35756;52.346;13.622;2022-12-07T10:18:18;423.23;;;403.42;;
49858;SDS011;35756;52.346;13.622;2022-12-07T10:20:46;228.52;;;218.30;;
49858;SDS011;35756;52.346;13.622;2022-12-07T10:23:16;184.65;;;176.95;;
49858;SDS011;35756;52.346;13.622;2022-12-07T10:25:42;465.58;;;440.48;;
49858;SDS011;35756;52.346;13.622;2022-12-07T10:30:33;487.37;;;459.50;;
49858;SDS011;35756;52.346;13.622;2022-12-07T10:33:27;644.58;;;603.90;;
49858;SDS011;35756;52.346;13.622;2022-12-07T10:35:54;474.42;;;452.10;;
49858;SDS011;35756;52.346;13.622;2022-12-07T10:38:19;543.85;;;517.50;;
49858;SDS011;35756;52.346;13.622;2022-12-07T10:40:45;627.25;;;595.25;;
49858;SDS011;35756;52.346;13.622;2022-12-07T10:48:16;755.92;;;705.70;;
49858;SDS011;35756;52.346;13.622;2022-12-07T10:56:37;690.90;;;652.13;;
49858;SDS011;35756;52.346;13.622;2022-12-07T11:01:57;646.38;;;612.65;;
49858;SDS011;35756;52.346;13.622;2022-12-07T11:17:55;440.05;;;420.67;;
49858;SDS011;35756;52.346;13.622;2022-12-07T11:31:32;494.65;;;471.00;;
49858;SDS011;35756;52.346;13.622;2022-12-07T11:34:17;364.45;;;347.80;;
49858;SDS011;35756;52.346;13.622;2022-12-07T11:36:49;323.85;;;309.42;;
49858;SDS011;35756;52.346;13.622;2022-12-07T11:39:28;382.83;;;365.23;;
49858;SDS011;35756;52.346;13.622;2022-12-07T11:44:52;492.77;;;468.70;;
49858;SDS011;35756;52.346;13.622;2022-12-07T11:47:30;412.85;;;394.15;;
49858;SDS011;35756;52.346;13.622;2022-12-07T11:52:52;588.53;;;556.85;;
49858;SDS011;35756;52.346;13.622;2022-12-07T11:55:32;686.90;;;649.65;;
49858;SDS011;35756;52.346;13.622;2022-12-07T12:01:11;760.75;;;714.97;;
49858;SDS011;35756;52.346;13.622;2022-12-07T12:03:45;656.55;;;620.80;;
49858;SDS011;35756;52.346;13.622;2022-12-07T12:06:17;602.47;;;571.20;;
49858;SDS011;35756;52.346;13.622;2022-12-07T12:08:52;535.83;;;510.20;;
49858;SDS011;35756;52.346;13.622;2022-12-07T12:22:43;460.48;;;439.50;;
49858;SDS011;35756;52.346;13.622;2022-12-07T12:25:31;439.20;;;417.63;;
49858;SDS011;35756;52.346;13.622;2022-12-07T12:28:00;366.48;;;349.90;;
49858;SDS011;35756;52.346;13.622;2022-12-07T12:30:30;384.40;;;366.45;;
49858;SDS011;35756;52.346;13.622;2022-12-07T12:33:02;489.55;;;464.95;;
49858;SDS011;35756;52.346;13.622;2022-12-07T12:35:31;438.95;;;418.00;;
49858;SDS011;35756;52.346;13.622;2022-12-07T12:38:25;415.23;;;395.77;;
49858;SDS011;35756;52.346;13.622;2022-12-07T12:40:58;440.45;;;419.48;;
49858;SDS011;35756;52.346;13.622;2022-12-07T12:48:54;508.80;;;483.25;;
49858;SDS011;35756;52.346;13.622;2022-12-07T12:51:35;392.58;;;373.90;;
49858;SDS011;35756;52.346;13.622;2022-12-07T12:54:05;410.63;;;391.70;;
49858;SDS011;35756;52.346;13.622;2022-12-07T12:56:41;445.17;;;423.42;;
49858;SDS011;35756;52.346;13.622;2022-12-07T13:01:47;362.55;;;345.88;;
49858;SDS011;35756;52.346;13.622;2022-12-07T13:04:56;385.77;;;367.52;;
49858;SDS011;35756;52.346;13.622;2022-12-07T13:07:03;417.30;;;397.77;;
49858;SDS011;35756;52.346;13.622;2022-12-07T13:09:29;391.42;;;373.25;;
49858;SDS011;35756;52.346;13.622;2022-12-07T13:12:00;377.98;;;360.48;;
49858;SDS011;35756;52.346;13.622;2022-12-07T13:15:19;563.08;;;532.13;;
49858;SDS011;35756;52.346;13.622;2022-12-07T13:20:00;485.83;;;461.90;;
49858;SDS011;35756;52.346;13.622;2022-12-07T13:24:59;472.77;;;448.70;;
49858;SDS011;35756;52.346;13.622;2022-12-07T13:27:30;409.80;;;389.77;;
49858;SDS011;35756;52.346;13.622;2022-12-07T13:29:56;392.38;;;374.50;;
49858;SDS011;35756;52.346;13.622;2022-12-07T13:32:31;372.92;;;355.92;;
49858;SDS011;35756;52.346;13.622;2022-12-07T13:34:56;612.20;;;579.00;;
49858;SDS011;35756;52.346;13.622;2022-12-07T13:37:26;547.15;;;517.85;;
49858;SDS011;35756;52.346;13.622;2022-12-07T13:39:57;760.47;;;715.22;;
49858;SDS011;35756;52.346;13.622;2022-12-07T13:42:25;529.78;;;503.80;;
49858;SDS011;35756;52.346;13.622;2022-12-07T13:44:54;411.42;;;391.98;;
49858;SDS011;35756;52.346;13.622;2022-12-07T13:47:23;443.80;;;423.33;;
49858;SDS011;35756;52.346;13.622;2022-12-07T13:50:01;535.42;;;509.02;;
49858;SDS011;35756;52.346;13.622;2022-12-07T13:52:43;520.42;;;494.38;;
49858;SDS011;35756;52.346;13.622;2022-12-07T13:55:16;512.75;;;487.77;;
49858;SDS011;35756;52.346;13.622;2022-12-07T13:57:42;526.35;;;501.17;;
49858;SDS011;35756;52.346;13.622;2022-12-07T14:00:17;469.23;;;446.55;;
49858;SDS011;35756;52.346;13.622;2022-12-07T14:02:57;516.80;;;491.38;;
49858;SDS011;35756;52.346;13.622;2022-12-07T14:07:57;550.10;;;522.15;;
49858;SDS011;35756;52.346;13.622;2022-12-07T14:10:28;479.80;;;456.27;;
49858;SDS011;35756;52.346;13.622;2022-12-07T14:12:58;434.65;;;414.17;;
49858;SDS011;35756;52.346;13.622;2022-12-07T14:15:26;388.13;;;370.27;;
49858;SDS011;35756;52.346;13.622;2022-12-07T14:17:54;417.25;;;397.85;;
49858;SDS011;35756;52.346;13.622;2022-12-07T14:22:58;360.40;;;343.63;;
49858;SDS011;35756;52.346;13.622;2022-12-07T14:25:25;300.33;;;286.75;;
49858;SDS011;35756;52.346;13.622;2022-12-07T14:27:52;304.13;;;289.77;;
49858;SDS011;35756;52.346;13.622;2022-12-07T14:30:21;252.00;;;240.73;;
49858;SDS011;35756;52.346;13.622;2022-12-07T14:32:54;222.20;;;212.48;;
49858;SDS011;35756;52.346;13.622;2022-12-07T14:35:22;285.13;;;272.52;;
49858;SDS011;35756;52.346;13.622;2022-12-07T14:37:48;274.55;;;261.90;;
49858;SDS011;35756;52.346;13.622;2022-12-07T14:40:15;243.02;;;231.98;;
49858;SDS011;35756;52.346;13.622;2022-12-07T14:42:45;218.95;;;208.73;;
49858;SDS011;35756;52.346;13.622;2022-12-07T14:45:21;253.63;;;242.25;;
49858;SDS011;35756;52.346;13.622;2022-12-07T14:47:47;219.00;;;209.02;;
49858;SDS011;35756;52.346;13.622;2022-12-07T14:50:13;194.40;;;185.75;;
49858;SDS011;35756;52.346;13.622;2022-12-07T14:52:40;248.95;;;237.95;;
49858;SDS011;35756;52.346;13.622;2022-12-07T14:55:12;236.82;;;226.98;;
49858;SDS011;35756;52.346;13.622;2022-12-07T14:57:58;232.02;;;221.88;;
49858;SDS011;35756;52.346;13.622;2022-12-07T15:00:25;206.35;;;197.35;;
49858;SDS011;35756;52.346;13.622;2022-12-07T15:02:51;194.77;;;186.48;;
49858;SDS011;35756;52.346;13.622;2022-12-07T15:05:17;170.27;;;162.77;;
49858;SDS011;35756;52.346;13.622;2022-12-07T15:07:43;162.07;;;155.13;;
49858;SDS011;35756;52.346;13.622;2022-12-07T15:10:16;124.07;;;118.35;;
49858;SDS011;35756;52.346;13.622;2022-12-07T15:12:49;120.38;;;114.28;;
49858;SDS011;35756;52.346;13.622;2022-12-07T15:15:15;111.03;;;105.43;;
49858;SDS011;35756;52.346;13.622;2022-12-07T15:17:40;86.28;;;81.95;;
49858;SDS011;35756;52.346;13.622;2022-12-07T15:20:07;114.07;;;108.13;;
49858;SDS011;35756;52.346;13.622;2022-12-07T15:22:36;81.13;;;77.05;;
49858;SDS011;35756;52.346;13.622;2022-12-07T15:25:01;92.70;;;88.25;;
49858;SDS011;35756;52.346;13.622;2022-12-07T15:27:26;85.13;;;80.93;;
49858;SDS011;35756;52.346;13.622;2022-12-07T15:29:52;46.15;;;43.40;;
49858;SDS011;35756;52.346;13.622;2022-12-07T15:32:18;55.30;;;52.25;;
49858;SDS011;35756;52.346;13.622;2022-12-07T15:34:53;43.83;;;41.75;;
49858;SDS011;35756;52.346;13.622;2022-12-07T15:37:19;53.45;;;50.40;;
49858;SDS011;35756;52.346;13.622;2022-12-07T15:39:47;26.20;;;24.60;;
49858;SDS011;35756;52.346;13.622;2022-12-07T15:42:13;26.77;;;25.25;;
49858;SDS011;35756;52.346;13.622;2022-12-07T15:44:38;28.05;;;26.45;;
49858;SDS011;35756;52.346;13.622;2022-12-07T15:47:22;36.85;;;34.30;;
49858;SDS011;35756;52.346;13.622;2022-12-07T15:49:47;45.47;;;43.25;;
49858;SDS011;35756;52.346;13.622;2022-12-07T15:52:13;63.67;;;59.75;;
49858;SDS011;35756;52.346;13.622;2022-12-07T15:54:38;16.33;;;15.15;;
49858;SDS011;35756;52.346;13.622;2022-12-07T15:57:04;17.15;;;16.05;;
49858;SDS011;35756;52.346;13.622;2022-12-07T15:59:29;19.08;;;17.33;;